createdAt,value
2022-08-22T18:49:20.625Z,19.8
2022-08-22T18:59:47.454Z,19.5
2022-08-22T19:04:47.699Z,19.6
2022-08-22T19:09:47.920Z,19.5
2022-08-22T19:14:48.060Z,19.4
2022-08-22T19:19:48.262Z,19.5
2022-08-22T19:24:48.476Z,19.4
2022-08-22T19:29:48.735Z,19.4
2022-08-22T19:34:48.883Z,19.4
2022-08-22T19:44:08.182Z,19.4
2022-08-22T19:44:49.218Z,19.5
2022-08-22T19:47:02.923Z,19.4
2022-08-22T19:49:49.406Z,19.4
2022-08-22T19:54:49.636Z,19.3
2022-08-22T19:59:50.793Z,19.4
2022-08-22T20:04:49.911Z,19.2
2022-08-22T20:09:50.085Z,19.1
2022-08-22T20:14:50.297Z,19.2
2022-08-22T20:20:18.156Z,19.1
2022-08-22T20:24:50.945Z,19.1
2022-08-22T20:34:50.977Z,19.0
2022-08-22T20:39:51.216Z,19.0
2022-08-22T20:44:53.698Z,19.0
2022-08-22T20:49:51.561Z,19.0
2022-08-22T20:59:51.802Z,18.9
2022-08-22T21:04:52.764Z,18.9
2022-08-22T21:09:52.159Z,18.9
2022-08-22T21:14:52.571Z,18.8
2022-08-22T21:19:52.470Z,18.8
2022-08-22T21:24:52.646Z,18.6
2022-08-22T21:29:52.753Z,18.4
2022-08-22T21:34:52.960Z,18.4
2022-08-22T21:44:53.164Z,18.2
2022-08-22T21:54:53.414Z,18.2
2022-08-22T22:04:53.639Z,18.3
2022-08-22T22:09:55.018Z,18.2
2022-08-22T22:14:53.940Z,18.2
2022-08-22T22:19:53.996Z,18.2
2022-08-22T22:24:54.118Z,18.0
2022-08-22T22:34:54.407Z,18.1
2022-08-22T22:39:54.628Z,18.0
2022-08-22T22:44:54.742Z,18.0
2022-08-22T22:49:54.823Z,18.0
2022-08-22T22:59:55.110Z,17.9
2022-08-22T23:04:55.264Z,17.9
2022-08-22T23:09:55.350Z,17.9
2022-08-22T23:19:55.611Z,17.9
2022-08-22T23:24:55.765Z,18.0
2022-08-22T23:29:55.807Z,18.0
